Search for airport 
image banner adimage banner adimage banner ad
image banner ad

0Q3 - Sonoma Valley

Located in Schellville/Sonoma, United States

ICAO - 0Q3, IATA -

Data provided by Airmate  

General information

Coordinates: N38°13'26" W122°26'59"
Elevation is 16 feet MSL.
Magnetic variation is 16° East
View others Airports in California

Operational data

Special qualification required
Current time UTC:
Current local time:
Weather at : KDVO - Gnoss Field ( 13 km )
METAR: KDVO 270535Z AUTO 34010KT 10SM CLR 15/12 A2995 RMK AO2
View NOTAMs / SUP AIP / TFR affecting this airport [VIEW]
Communications frequencies: [VIEW]

Runways:

RWY identifierQFULength (ft)Width (ft)SurfaceLDA (ft)
07270045ASPH
25270045ASPH
17151350ASPH
35151350ASPH

Airport contact information

Address: Schellville/Sonoma United States

Satellite view of 0Q3